createdAt,value
2023-03-11T00:00:47.600Z,11.00
2023-03-11T00:03:17.895Z,11.00
2023-03-11T00:05:46.587Z,10.99
2023-03-11T00:08:16.929Z,11.03
2023-03-11T00:10:46.638Z,11.10
2023-03-11T00:13:16.772Z,11.04
2023-03-11T00:15:47.050Z,11.04
2023-03-11T00:18:14.418Z,11.04
2023-03-11T00:20:44.734Z,11.06
2023-03-11T00:23:13.997Z,11.04
2023-03-11T00:25:44.158Z,10.96
2023-03-11T00:28:11.700Z,10.84
2023-03-11T00:30:41.716Z,10.80
2023-03-11T00:33:11.237Z,10.76
2023-03-11T00:35:40.186Z,10.69
2023-03-11T00:38:13.179Z,10.69
2023-03-11T00:40:40.162Z,10.65
2023-03-11T00:43:07.109Z,10.62
2023-03-11T00:45:36.350Z,10.62
2023-03-11T00:48:06.038Z,10.66
2023-03-11T00:50:35.778Z,10.66
2023-03-11T00:53:04.294Z,10.66
2023-03-11T00:55:33.713Z,10.69
2023-03-11T00:58:05.734Z,10.69
2023-03-11T01:00:41.540Z,10.72
2023-03-11T01:03:11.072Z,10.76
2023-03-11T01:05:38.138Z,10.79
2023-03-11T01:08:05.834Z,10.82
2023-03-11T01:10:34.829Z,10.82
2023-03-11T01:13:02.162Z,10.83
2023-03-11T01:15:33.342Z,10.77
2023-03-11T01:18:01.264Z,10.75
2023-03-11T01:20:30.101Z,10.68
2023-03-11T01:22:57.082Z,10.66
2023-03-11T01:25:25.547Z,10.63
2023-03-11T01:27:54.097Z,10.58
2023-03-11T01:30:24.774Z,10.61
2023-03-11T01:32:53.881Z,10.61
2023-03-11T01:35:24.335Z,10.58
2023-03-11T01:37:53.548Z,10.52
2023-03-11T01:40:26.876Z,10.53
2023-03-11T01:42:54.183Z,10.56
2023-03-11T01:46:08.119Z,10.73
2023-03-11T01:48:35.331Z,10.71
2023-03-11T01:51:02.461Z,10.59
2023-03-11T01:53:31.336Z,10.63
2023-03-11T01:55:58.529Z,10.66
2023-03-11T01:58:30.662Z,10.69
2023-03-11T02:01:00.331Z,10.77
2023-03-11T02:03:31.504Z,10.84
2023-03-11T02:06:03.830Z,10.84
2023-03-11T02:08:32.190Z,10.76
2023-03-11T02:11:03.459Z,10.77
2023-03-11T02:13:33.096Z,10.82
2023-03-11T02:16:00.680Z,10.76
2023-03-11T02:18:28.071Z,10.72
2023-03-11T02:21:05.534Z,10.75
2023-03-11T02:23:46.120Z,10.77
2023-03-11T02:26:23.881Z,10.79
2023-03-11T02:28:54.958Z,10.77
2023-03-11T02:31:23.759Z,10.83
2023-03-11T02:33:54.577Z,10.84
2023-03-11T02:36:38.213Z,10.88
2023-03-11T02:39:10.054Z,10.82
2023-03-11T02:41:46.615Z,10.82
2023-03-11T02:44:16.770Z,10.68
2023-03-11T02:46:46.243Z,10.58
2023-03-11T02:49:17.264Z,10.56
2023-03-11T02:51:44.331Z,10.48
2023-03-11T02:54:12.074Z,10.31
2023-03-11T02:56:39.318Z,10.32
2023-03-11T02:59:06.310Z,10.31
2023-03-11T03:01:35.889Z,10.11
2023-03-11T03:04:04.239Z,10.05
2023-03-11T03:06:33.386Z,10.10
2023-03-11T03:09:00.797Z,10.15
2023-03-11T03:11:27.878Z,10.14
2023-03-11T03:13:55.926Z,10.20
2023-03-11T03:16:24.269Z,10.18
2023-03-11T03:18:52.747Z,10.27
2023-03-11T03:21:19.728Z,10.14
2023-03-11T03:23:48.195Z,10.15
2023-03-11T03:26:16.138Z,10.10
2023-03-11T03:28:45.989Z,10.15
2023-03-11T03:31:13.747Z,10.15
2023-03-11T03:33:42.677Z,10.17
2023-03-11T03:36:13.838Z,10.10
2023-03-11T03:38:44.714Z,10.04
2023-03-11T03:41:14.636Z,9.93
2023-03-11T03:43:42.324Z,9.86
2023-03-11T03:46:10.413Z,9.87
2023-03-11T03:48:44.304Z,9.90
2023-03-11T03:51:14.854Z,9.91
2023-03-11T03:53:53.035Z,9.95
2023-03-11T03:56:20.271Z,9.98
2023-03-11T03:58:47.937Z,10.02
2023-03-11T04:01:15.043Z,9.98
2023-03-11T04:03:42.094Z,10.01
2023-03-11T04:06:19.320Z,10.08
2023-03-11T04:08:51.977Z,10.08
2023-03-11T04:11:20.110Z,10.11
2023-03-11T04:13:47.490Z,10.14
2023-03-11T04:16:19.048Z,10.21
2023-03-11T04:18:46.650Z,10.27
2023-03-11T04:21:16.269Z,10.24
2023-03-11T04:23:44.428Z,10.21
2023-03-11T04:26:14.102Z,10.22
2023-03-11T04:28:41.206Z,10.17
2023-03-11T04:31:08.931Z,10.12
2023-03-11T04:33:36.220Z,10.15
2023-03-11T04:36:06.961Z,10.17
2023-03-11T04:38:36.869Z,10.15
2023-03-11T04:41:06.555Z,10.22
2023-03-11T04:43:35.648Z,10.27
2023-03-11T04:46:03.085Z,10.25
2023-03-11T04:48:30.083Z,10.15
2023-03-11T04:50:57.466Z,10.07
2023-03-11T04:53:24.886Z,10.01
2023-03-11T04:55:53.515Z,9.94
2023-03-11T04:58:20.905Z,9.87
2023-03-11T05:00:48.287Z,9.80
2023-03-11T05:03:16.155Z,9.73
2023-03-11T05:05:43.315Z,9.74
2023-03-11T05:08:10.850Z,9.73
2023-03-11T05:10:40.424Z,9.71
2023-03-11T05:13:09.018Z,9.74
2023-03-11T05:15:38.120Z,9.76
2023-03-11T05:18:06.528Z,9.74
2023-03-11T05:20:36.086Z,9.70
2023-03-11T05:23:04.149Z,9.69
2023-03-11T05:25:33.771Z,9.64
2023-03-11T05:28:01.941Z,9.57
2023-03-11T05:30:30.650Z,9.57
2023-03-11T05:32:58.341Z,9.46
2023-03-11T05:35:25.680Z,9.46
2023-03-11T05:37:53.148Z,9.43
2023-03-11T05:40:20.988Z,9.44
2023-03-11T05:45:43.313Z,9.19
2023-03-11T05:48:10.861Z,9.16
2023-03-11T05:50:38.665Z,9.02
2023-03-11T05:53:06.470Z,8.95
2023-03-11T05:55:33.666Z,8.88
2023-03-11T05:58:01.354Z,8.89
2023-03-11T06:00:28.415Z,8.84
2023-03-11T06:02:59.295Z,8.79
2023-03-11T06:05:26.835Z,8.81
2023-03-11T06:07:55.271Z,8.77
2023-03-11T06:10:23.236Z,8.87
2023-03-11T06:12:50.070Z,8.79
2023-03-11T06:15:22.831Z,8.74
2023-03-11T06:17:50.125Z,8.81
2023-03-11T06:20:19.812Z,8.88
2023-03-11T06:22:49.121Z,8.87
2023-03-11T06:25:16.843Z,8.87
2023-03-11T06:27:50.069Z,8.88
2023-03-11T06:30:17.583Z,8.81
2023-03-11T06:32:53.366Z,8.81
2023-03-11T06:35:21.821Z,8.85
2023-03-11T06:37:48.798Z,8.82
2023-03-11T06:40:15.897Z,8.82
2023-03-11T06:45:39.650Z,8.82
2023-03-11T06:48:07.134Z,8.92
2023-03-11T06:50:36.195Z,8.81
2023-03-11T06:53:03.847Z,8.84
2023-03-11T06:55:30.778Z,8.85
2023-03-11T06:57:58.496Z,8.88
2023-03-11T07:00:26.394Z,8.88
2023-03-11T07:02:57.609Z,8.85
2023-03-11T07:05:26.419Z,8.91
2023-03-11T07:08:00.807Z,9.01
2023-03-11T07:10:27.934Z,9.08
2023-03-11T07:12:55.005Z,9.12
2023-03-11T07:15:22.563Z,9.18
2023-03-11T07:17:49.530Z,9.22
2023-03-11T07:20:18.035Z,9.26
2023-03-11T07:22:44.916Z,9.23
2023-03-11T07:25:14.168Z,9.25
2023-03-11T07:27:41.059Z,9.23
2023-03-11T07:30:10.290Z,9.26
2023-03-11T07:32:37.471Z,9.36
2023-03-11T07:35:05.781Z,9.40
2023-03-11T07:37:33.081Z,9.44
2023-03-11T07:40:00.228Z,9.54
2023-03-11T07:42:28.546Z,9.60
2023-03-11T07:44:55.847Z,9.76
2023-03-11T07:47:22.936Z,9.90
2023-03-11T07:49:50.181Z,10.02
2023-03-11T07:52:17.166Z,10.20
2023-03-11T07:54:44.316Z,10.32
2023-03-11T07:57:11.347Z,10.41
2023-03-11T07:59:39.821Z,10.53
2023-03-11T08:02:07.260Z,10.56
2023-03-11T08:04:34.498Z,10.72
2023-03-11T08:07:01.609Z,10.83
2023-03-11T08:09:28.772Z,10.99
2023-03-11T08:11:55.863Z,11.10
2023-03-11T08:14:22.756Z,11.37
2023-03-11T08:16:51.149Z,11.67
2023-03-11T08:19:18.273Z,11.96
2023-03-11T08:21:45.152Z,12.25
2023-03-11T08:24:14.053Z,12.46
2023-03-11T08:26:42.048Z,12.60
2023-03-11T08:29:09.028Z,12.79
2023-03-11T08:31:36.500Z,13.01
2023-03-11T08:34:08.916Z,13.10
2023-03-11T08:36:36.455Z,13.27
2023-03-11T08:39:03.684Z,13.41
2023-03-11T08:41:30.687Z,13.61
2023-03-11T08:43:57.887Z,13.75
2023-03-11T08:46:28.473Z,13.79
2023-03-11T08:48:58.684Z,13.85
2023-03-11T08:51:32.336Z,13.63
2023-03-11T08:54:00.834Z,13.55
2023-03-11T08:56:28.258Z,13.55
2023-03-11T08:58:55.150Z,13.61
2023-03-11T09:01:22.345Z,13.62
2023-03-11T09:03:49.789Z,13.54
2023-03-11T09:06:18.438Z,13.65
2023-03-11T09:08:48.757Z,13.72
2023-03-11T09:11:17.727Z,13.89
2023-03-11T09:13:45.422Z,14.03
2023-03-11T09:16:15.189Z,14.12
2023-03-11T09:18:42.505Z,14.19
2023-03-11T09:21:10.421Z,14.31
2023-03-11T09:23:37.708Z,14.36
2023-03-11T09:26:06.383Z,14.45
2023-03-11T09:28:33.538Z,14.36
2023-03-11T09:31:00.703Z,14.24
2023-03-11T09:33:27.843Z,14.24
2023-03-11T09:35:54.736Z,14.36
2023-03-11T09:38:21.830Z,14.48
2023-03-11T09:40:59.631Z,14.70
2023-03-11T09:43:47.597Z,14.72
2023-03-11T09:46:57.157Z,14.87
2023-03-11T09:49:44.800Z,15.02
2023-03-11T09:52:14.432Z,15.18
2023-03-11T09:54:46.635Z,15.39
2023-03-11T09:57:21.368Z,15.63
2023-03-11T09:59:50.904Z,15.77
2023-03-11T10:02:21.526Z,16.04
2023-03-11T10:04:56.185Z,16.28
2023-03-11T10:07:28.785Z,16.26
2023-03-11T10:09:57.843Z,16.07
2023-03-11T10:12:49.927Z,15.81
2023-03-11T10:15:27.435Z,15.70
2023-03-11T10:18:18.247Z,15.70
2023-03-11T10:20:58.558Z,15.39
2023-03-11T10:23:37.324Z,15.36
2023-03-11T10:26:13.521Z,15.36
2023-03-11T10:28:46.776Z,15.26
2023-03-11T10:31:23.953Z,15.39
2023-03-11T10:33:56.349Z,15.44
2023-03-11T10:36:29.312Z,15.50
2023-03-11T10:38:57.223Z,15.71
2023-03-11T10:41:31.147Z,15.67
2023-03-11T10:44:06.119Z,15.70
2023-03-11T10:46:34.582Z,15.69
2023-03-11T10:49:01.469Z,15.69
2023-03-11T10:51:34.595Z,15.67
2023-03-11T10:54:03.538Z,15.60
2023-03-11T10:56:33.578Z,15.49
2023-03-11T10:59:02.219Z,15.39
2023-03-11T11:01:30.307Z,15.52
2023-03-11T11:04:02.242Z,15.63
2023-03-11T11:06:32.091Z,15.49
2023-03-11T11:09:14.641Z,15.60
2023-03-11T11:11:45.626Z,15.44
2023-03-11T11:14:12.715Z,15.67
2023-03-11T11:19:33.967Z,15.89
2023-03-11T11:22:04.892Z,15.87
2023-03-11T11:24:32.492Z,16.08
2023-03-11T11:27:16.077Z,16.24
2023-03-11T11:29:43.790Z,16.36
2023-03-11T11:32:24.156Z,16.69
2023-03-11T11:35:00.216Z,16.93
2023-03-11T11:37:30.611Z,17.07
2023-03-11T11:40:04.036Z,17.24
2023-03-11T11:42:31.461Z,17.13
2023-03-11T11:45:10.515Z,16.92
2023-03-11T11:47:43.292Z,16.92
2023-03-11T11:50:20.565Z,16.96
2023-03-11T11:52:56.615Z,16.99
2023-03-11T11:55:28.215Z,16.75
2023-03-11T11:57:55.106Z,16.65
2023-03-11T12:00:28.354Z,16.65
2023-03-11T12:03:18.677Z,16.68
2023-03-11T12:05:58.113Z,16.61
2023-03-11T12:08:33.861Z,16.41
2023-03-11T12:11:06.393Z,16.41
2023-03-11T12:13:58.468Z,16.35
2023-03-11T12:16:41.097Z,16.31
2023-03-11T12:19:29.041Z,16.21
2023-03-11T12:22:41.150Z,16.10
2023-03-11T12:25:36.984Z,16.29
2023-03-11T12:28:23.380Z,16.29
2023-03-11T12:30:53.725Z,16.58
2023-03-11T12:33:31.621Z,16.82
2023-03-11T12:36:01.221Z,16.66
2023-03-11T12:38:33.085Z,16.48
2023-03-11T12:41:06.526Z,16.41
2023-03-11T12:44:04.663Z,16.73
2023-03-11T12:47:17.535Z,16.80
2023-03-11T12:49:45.876Z,16.94
2023-03-11T12:52:51.921Z,16.86
2023-03-11T12:55:39.862Z,16.59
2023-03-11T12:59:00.345Z,16.21
2023-03-11T13:01:53.629Z,16.10
2023-03-11T13:04:47.744Z,15.86
2023-03-11T13:07:41.357Z,15.73
2023-03-11T13:10:17.113Z,15.93
2023-03-11T13:12:47.921Z,16.34
2023-03-11T13:15:37.371Z,16.53
2023-03-11T13:18:18.048Z,16.51
2023-03-11T13:20:52.593Z,16.40
2023-03-11T13:23:42.546Z,16.56
2023-03-11T13:26:40.010Z,16.61
2023-03-11T13:29:46.094Z,16.42
2023-03-11T13:32:43.552Z,15.86
2023-03-11T13:35:31.055Z,15.52
2023-03-11T13:38:28.740Z,15.20
2023-03-11T13:40:55.672Z,14.93
2023-03-11T13:43:25.395Z,14.79
2023-03-11T13:46:00.382Z,14.74
2023-03-11T13:48:31.934Z,14.45
2023-03-11T13:51:03.970Z,14.06
2023-03-11T13:53:37.606Z,14.02
2023-03-11T13:56:05.444Z,14.40
2023-03-11T13:58:32.594Z,14.23
2023-03-11T14:01:02.605Z,14.47
2023-03-11T14:03:42.835Z,14.33
2023-03-11T14:06:18.011Z,14.21
2023-03-11T14:08:53.720Z,14.47
2023-03-11T14:11:26.492Z,14.87
2023-03-11T14:13:53.673Z,15.39
2023-03-11T14:16:27.889Z,15.97
2023-03-11T14:19:03.816Z,16.40
2023-03-11T14:21:31.209Z,16.65
2023-03-11T14:23:58.528Z,16.82
2023-03-11T14:26:29.911Z,17.00
2023-03-11T14:29:01.265Z,17.07
2023-03-11T14:31:35.331Z,16.99
2023-03-11T14:34:04.786Z,16.97
2023-03-11T14:36:40.984Z,16.83
2023-03-11T14:39:29.524Z,16.47
2023-03-11T14:42:19.067Z,15.86
2023-03-11T14:44:51.350Z,15.70
2023-03-11T14:47:28.153Z,15.40
2023-03-11T14:49:55.846Z,15.15
2023-03-11T14:52:34.668Z,15.11
2023-03-11T14:55:03.611Z,14.92
2023-03-11T14:57:41.365Z,14.75
2023-03-11T15:00:19.211Z,14.48
2023-03-11T15:03:01.776Z,14.57
2023-03-11T15:05:38.742Z,14.47
2023-03-11T15:08:06.944Z,14.34
2023-03-11T15:10:34.352Z,14.29
2023-03-11T15:13:09.299Z,14.31
2023-03-11T15:15:36.863Z,14.03
2023-03-11T15:18:23.142Z,13.91
2023-03-11T15:21:05.240Z,13.80
2023-03-11T15:23:35.350Z,13.76
2023-03-11T15:26:03.576Z,13.35
2023-03-11T15:28:33.486Z,13.32
2023-03-11T15:31:27.852Z,12.95
2023-03-11T15:33:56.127Z,13.15
2023-03-11T15:36:31.832Z,13.04
2023-03-11T15:39:18.038Z,13.00
2023-03-11T15:41:48.585Z,13.01
2023-03-11T15:44:27.966Z,13.01
2023-03-11T15:46:55.510Z,13.03
2023-03-11T15:49:23.860Z,13.04
2023-03-11T15:51:50.907Z,12.90
2023-03-11T15:54:18.063Z,12.67
2023-03-11T15:56:46.793Z,12.52
2023-03-11T15:59:17.110Z,12.39
2023-03-11T16:01:44.648Z,12.08
2023-03-11T16:04:15.143Z,11.95
2023-03-11T16:06:45.099Z,11.96
2023-03-11T16:09:14.681Z,11.65
2023-03-11T16:11:43.813Z,11.89
2023-03-11T16:14:18.128Z,11.82
2023-03-11T16:16:45.443Z,11.96
2023-03-11T16:19:13.424Z,12.21
2023-03-11T16:21:45.361Z,12.39
2023-03-11T16:24:20.471Z,12.52
2023-03-11T16:26:47.442Z,12.57
2023-03-11T16:29:19.427Z,12.54
2023-03-11T16:31:47.352Z,12.59
2023-03-11T16:34:14.448Z,12.66
2023-03-11T16:36:42.647Z,12.70
2023-03-11T16:39:09.800Z,12.59
2023-03-11T16:41:42.744Z,12.49
2023-03-11T16:44:10.306Z,12.53
2023-03-11T16:46:37.672Z,12.47
2023-03-11T16:49:04.957Z,12.45
2023-03-11T16:51:32.011Z,12.32
2023-03-11T16:54:00.833Z,12.16
2023-03-11T16:56:28.068Z,11.89
2023-03-11T16:58:55.138Z,11.99
2023-03-11T17:01:22.823Z,11.81
2023-03-11T17:03:50.526Z,11.95
2023-03-11T17:06:19.391Z,11.81
2023-03-11T17:08:46.739Z,11.68
2023-03-11T17:11:22.057Z,11.89
2023-03-11T17:13:50.823Z,11.81
2023-03-11T17:16:17.825Z,11.86
2023-03-11T17:18:45.017Z,11.70
2023-03-11T17:21:15.198Z,11.61
2023-03-11T17:23:42.629Z,11.40
2023-03-11T17:26:11.930Z,11.40
2023-03-11T17:28:40.523Z,11.47
2023-03-11T17:31:12.029Z,11.57
2023-03-11T17:33:39.258Z,11.34
2023-03-11T17:36:08.850Z,11.50
2023-03-11T17:38:38.904Z,11.57
2023-03-11T17:41:11.562Z,11.54
2023-03-11T17:43:40.863Z,11.21
2023-03-11T17:46:09.167Z,11.21
2023-03-11T17:48:36.156Z,11.21
2023-03-11T17:51:06.191Z,11.33
2023-03-11T17:53:33.462Z,11.50
2023-03-11T17:56:00.358Z,11.65
2023-03-11T17:58:27.395Z,11.81
2023-03-11T18:00:56.105Z,11.84
2023-03-11T18:03:23.122Z,11.89
2023-03-11T18:06:01.445Z,11.70
2023-03-11T18:08:29.401Z,11.68
2023-03-11T18:11:01.293Z,11.78
2023-03-11T18:13:28.104Z,11.82
2023-03-11T18:16:01.821Z,11.77
2023-03-11T18:18:30.535Z,11.70
2023-03-11T18:21:01.323Z,11.61
2023-03-11T18:23:28.339Z,11.48
2023-03-11T18:25:55.423Z,11.53
2023-03-11T18:28:22.338Z,11.44
2023-03-11T18:30:49.556Z,11.58
2023-03-11T18:33:17.929Z,11.45
2023-03-11T18:35:44.705Z,11.53
2023-03-11T18:38:12.756Z,11.27
2023-03-11T18:40:39.838Z,11.37
2023-03-11T18:43:06.860Z,11.31
2023-03-11T18:45:33.938Z,11.16
2023-03-11T18:48:00.851Z,11.23
2023-03-11T18:50:30.047Z,11.13
2023-03-11T18:52:57.059Z,11.28
2023-03-11T18:55:24.183Z,11.20
2023-03-11T18:57:51.802Z,11.14
2023-03-11T19:00:19.780Z,11.26
2023-03-11T19:02:51.260Z,11.26
2023-03-11T19:05:18.396Z,11.20
2023-03-11T19:07:46.645Z,11.33
2023-03-11T19:10:13.791Z,11.24
2023-03-11T19:12:41.429Z,11.13
2023-03-11T19:15:11.219Z,11.09
2023-03-11T19:17:38.408Z,10.86
2023-03-11T19:20:06.869Z,10.71
2023-03-11T19:22:33.780Z,10.68
2023-03-11T19:25:02.060Z,10.49
2023-03-11T19:27:28.921Z,10.44
2023-03-11T19:29:55.764Z,10.35
2023-03-11T19:32:22.948Z,10.31
2023-03-11T19:34:49.816Z,10.15
2023-03-11T19:37:16.990Z,10.25
2023-03-11T19:39:43.976Z,10.56
2023-03-11T19:42:12.215Z,10.61
2023-03-11T19:44:39.240Z,10.25
2023-03-11T19:47:06.262Z,10.32
2023-03-11T19:49:33.388Z,10.49
2023-03-11T19:52:00.252Z,10.61
2023-03-11T19:54:27.159Z,10.58
2023-03-11T19:56:54.125Z,10.07
2023-03-11T19:59:22.303Z,9.98
2023-03-11T20:01:49.314Z,9.94
2023-03-11T20:04:16.572Z,9.80
2023-03-11T20:06:44.398Z,9.56
2023-03-11T20:09:12.010Z,9.69
2023-03-11T20:11:39.639Z,9.69
2023-03-11T20:14:07.258Z,9.79
2023-03-11T20:16:36.991Z,9.95
2023-03-11T20:19:04.258Z,10.01
2023-03-11T20:21:31.355Z,10.00
2023-03-11T20:23:58.462Z,10.14
2023-03-11T20:26:25.588Z,10.24
2023-03-11T20:28:56.034Z,10.32
2023-03-11T20:31:26.003Z,10.21
2023-03-11T20:33:55.443Z,10.35
2023-03-11T20:36:26.749Z,10.45
2023-03-11T20:38:55.237Z,10.42
2023-03-11T20:41:24.181Z,10.48
2023-03-11T20:43:54.689Z,10.56
2023-03-11T20:46:21.944Z,10.71
2023-03-11T20:48:48.807Z,10.73
2023-03-11T20:51:19.161Z,10.77
2023-03-11T20:53:46.945Z,10.77
2023-03-11T20:56:17.755Z,10.79
2023-03-11T20:58:45.101Z,10.84
2023-03-11T21:01:14.440Z,10.73
2023-03-11T21:03:41.705Z,10.69
2023-03-11T21:06:20.272Z,10.84
2023-03-11T21:08:48.551Z,10.84
2023-03-11T21:11:17.155Z,10.89
2023-03-11T21:13:44.545Z,10.82
2023-03-11T21:16:12.493Z,10.83
2023-03-11T21:18:42.444Z,10.82
2023-03-11T21:21:09.958Z,10.84
2023-03-11T21:23:39.022Z,10.92
2023-03-11T21:26:06.738Z,10.96
2023-03-11T21:28:34.813Z,10.97
2023-03-11T21:31:05.391Z,11.03
2023-03-11T21:33:32.674Z,10.99
2023-03-11T21:36:01.240Z,10.84
2023-03-11T21:38:29.133Z,10.88
2023-03-11T21:41:07.922Z,10.95
2023-03-11T21:43:36.077Z,10.75
2023-03-11T21:46:03.894Z,10.76
2023-03-11T21:48:31.679Z,10.65
2023-03-11T21:50:58.730Z,10.56
2023-03-11T21:53:26.260Z,10.45
2023-03-11T21:55:53.941Z,10.39
2023-03-11T21:58:22.691Z,10.48
2023-03-11T22:00:49.784Z,10.55
2023-03-11T22:03:17.191Z,10.42
2023-03-11T22:05:44.340Z,10.62
2023-03-11T22:08:11.311Z,10.65
2023-03-11T22:10:38.448Z,10.63
2023-03-11T22:13:05.571Z,10.65
2023-03-11T22:15:34.106Z,10.76
2023-03-11T22:18:01.022Z,10.90
2023-03-11T22:20:28.088Z,11.06
2023-03-11T22:22:55.190Z,11.17
2023-03-11T22:25:22.024Z,11.28
2023-03-11T22:27:48.839Z,11.21
2023-03-11T22:30:15.943Z,11.31
2023-03-11T22:32:44.351Z,11.35
2023-03-11T22:35:11.244Z,11.37
2023-03-11T22:37:38.085Z,11.41
2023-03-11T22:40:07.196Z,11.50
2023-03-11T22:42:34.403Z,11.54
2023-03-11T22:45:26.836Z,11.48
2023-03-11T22:50:46.070Z,11.53
2023-03-11T22:53:13.844Z,11.45
2023-03-11T22:55:41.608Z,11.38
2023-03-11T22:58:08.608Z,11.40
2023-03-11T23:00:36.235Z,11.45
2023-03-11T23:03:05.328Z,11.48
2023-03-11T23:05:32.731Z,11.50
2023-03-11T23:07:59.550Z,11.55
2023-03-11T23:10:26.563Z,11.54
2023-03-11T23:12:53.453Z,11.53
2023-03-11T23:15:20.387Z,11.44
2023-03-11T23:17:47.200Z,11.37
2023-03-11T23:20:17.083Z,11.27
2023-03-11T23:22:44.223Z,11.13
2023-03-11T23:25:15.255Z,11.13
2023-03-11T23:27:43.892Z,11.04
2023-03-11T23:30:13.279Z,11.03
2023-03-11T23:32:40.195Z,11.02
2023-03-11T23:35:08.283Z,11.12
2023-03-11T23:37:36.714Z,11.06
2023-03-11T23:40:04.439Z,11.16
2023-03-11T23:42:32.741Z,11.17
2023-03-11T23:44:59.887Z,11.12
2023-03-11T23:47:27.222Z,11.09
2023-03-11T23:49:54.083Z,10.97
2023-03-11T23:52:21.041Z,10.90
2023-03-11T23:54:49.443Z,10.90
2023-03-11T23:57:17.003Z,10.93
2023-03-11T23:59:44.618Z,10.93
